Time;durP1;ratioP1;P1;durP2;ratioP2;P2;SDS_P1;SDS_P2;PMS_P1;PMS_P2;Temp;Humidity;BMP_temperature;BMP_pressure;BME280_temperature;BME280_humidity;BME280_pressure;Samples;Min_cycle;Max_cycle;Signal;HPM_P1;HPM_P2
2023/12/13 00:00:42;;;;;;;0.60;0.60;;;14.10;84.50;13.10;95016.00;;;;5041635;28;20296;-90
2023/12/13 00:03:09;;;;;;;0.50;0.47;;;14.00;84.40;13.10;95011.00;;;;5042060;28;20223;-89
2023/12/13 00:05:38;;;;;;;0.50;0.50;;;14.10;84.60;13.00;95010.00;;;;5050293;28;20216;-89
2023/12/13 00:08:05;;;;;;;0.30;0.30;;;14.00;84.50;13.00;95013.00;;;;5050772;28;20200;-89
2023/12/13 00:10:32;;;;;;;0.40;0.40;;;14.00;84.50;13.00;95025.00;;;;5044886;28;20212;-89
2023/12/13 00:13:00;;;;;;;0.30;0.30;;;14.00;84.60;13.00;95000.00;;;;5041607;28;20208;-89
2023/12/13 00:15:27;;;;;;;0.30;0.30;;;14.00;84.60;13.00;95004.00;;;;5045371;28;20224;-89
2023/12/13 00:17:56;;;;;;;0.23;0.23;;;14.00;84.60;13.00;95000.00;;;;5046785;28;20275;-89
2023/12/13 00:20:23;;;;;;;0.30;0.30;;;14.00;84.50;13.00;95002.00;;;;5045413;28;20289;-89
2023/12/13 00:22:52;;;;;;;0.47;0.37;;;14.00;84.40;13.00;95003.00;;;;5031594;28;20197;-89
2023/12/13 00:25:19;;;;;;;0.27;0.27;;;14.00;84.40;13.00;94999.00;;;;5036354;28;20592;-89
2023/12/13 00:27:47;;;;;;;0.27;0.20;;;14.00;84.40;13.00;94987.00;;;;5053482;28;20667;-89
2023/12/13 00:30:15;;;;;;;0.40;0.40;;;14.00;84.50;13.00;94978.00;;;;5045815;28;20236;-89
2023/12/13 00:32:42;;;;;;;0.27;0.27;;;14.00;84.50;13.00;94981.00;;;;5048208;28;20194;-90
2023/12/13 00:35:10;;;;;;;1.23;0.30;;;13.90;84.60;13.00;94983.00;;;;5043802;28;20217;-89
2023/12/13 00:37:37;;;;;;;0.20;0.20;;;13.90;84.60;13.00;94997.00;;;;5038186;28;20255;-89
2023/12/13 00:40:10;;;;;;;0.27;0.27;;;14.00;84.50;13.00;94998.00;;;;5052493;28;20196;-90
2023/12/13 00:42:38;;;;;;;0.30;0.30;;;13.90;84.30;13.00;95001.00;;;;5053344;28;20193;-90
2023/12/13 00:45:08;;;;;;;0.30;0.30;;;14.00;84.50;13.00;95011.00;;;;5057053;28;20311;-89
2023/12/13 00:47:35;;;;;;;0.30;0.30;;;14.00;84.40;13.00;95001.00;;;;5048329;28;20216;-90
2023/12/13 00:50:03;;;;;;;0.07;0.07;;;14.00;84.40;13.00;95008.00;;;;5051134;28;20936;-89
2023/12/13 00:52:32;;;;;;;0.23;0.23;;;13.90;84.10;13.00;95003.00;;;;5048363;28;20188;-90
2023/12/13 00:55:00;;;;;;;0.20;0.20;;;13.90;84.10;12.90;95008.00;;;;5051745;28;20692;-89
2023/12/13 00:57:29;;;;;;;0.30;0.30;;;13.90;84.10;12.90;95012.00;;;;5048819;28;20243;-89
2023/12/13 00:59:56;;;;;;;0.10;0.10;;;13.90;84.10;12.90;95007.00;;;;5045235;28;20575;-89
2023/12/13 01:02:24;;;;;;;0.20;0.10;;;13.90;84.10;12.90;95005.00;;;;5047447;28;20220;-89
2023/12/13 01:04:51;;;;;;;0.10;0.10;;;13.90;84.10;12.90;94995.00;;;;5049323;28;20220;-89
2023/12/13 01:07:18;;;;;;;0.40;0.40;;;13.90;84.20;12.90;95008.00;;;;5047196;28;20286;-89
2023/12/13 01:09:46;;;;;;;0.20;0.20;;;13.90;84.20;12.90;95001.00;;;;5047754;28;20206;-89
2023/12/13 01:12:13;;;;;;;0.23;0.23;;;13.90;84.10;12.90;95002.00;;;;5052256;28;20196;-89
2023/12/13 01:14:42;;;;;;;0.30;0.20;;;13.90;84.10;12.90;95012.00;;;;5050433;28;20239;-89
2023/12/13 01:17:10;;;;;;;0.20;0.20;;;13.90;84.10;12.90;95015.00;;;;5051523;28;20366;-90
2023/12/13 01:19:38;;;;;;;0.17;0.10;;;13.80;84.10;12.90;95020.00;;;;5049372;28;20200;-90
2023/12/13 01:22:05;;;;;;;0.10;0.10;;;13.80;84.00;12.80;95016.00;;;;5051149;28;20201;-89
2023/12/13 01:24:32;;;;;;;0.10;0.10;;;13.80;83.90;12.80;95015.00;;;;5053146;28;20228;-89
2023/12/13 01:27:02;;;;;;;0.43;0.20;;;13.80;83.80;12.80;95021.00;;;;5047680;28;20201;-89
2023/12/13 01:29:31;;;;;;;0.27;0.20;;;13.80;83.70;12.70;95026.00;;;;5052214;28;20189;-88
2023/12/13 01:32:00;;;;;;;0.20;0.20;;;13.80;83.80;12.70;95021.00;;;;5045138;28;20200;-89
2023/12/13 01:34:27;;;;;;;0.10;0.10;;;13.70;83.80;12.70;95024.00;;;;5046739;28;20224;-89
2023/12/13 01:36:55;;;;;;;0.27;0.10;;;13.70;83.80;12.70;95013.00;;;;5043435;28;20254;-89
2023/12/13 01:39:25;;;;;;;0.30;0.10;;;13.70;83.80;12.70;95023.00;;;;5041906;28;20197;-89
2023/12/13 01:41:57;;;;;;;0.83;0.30;;;13.70;83.80;12.70;95013.00;;;;5046110;28;20208;-90
2023/12/13 01:44:24;;;;;;;0.03;0.03;;;13.70;83.80;12.70;95014.00;;;;5050433;28;20225;-89
2023/12/13 01:46:52;;;;;;;0.10;0.10;;;13.70;83.90;12.70;95024.00;;;;5048740;28;20197;-89
2023/12/13 01:49:21;;;;;;;0.20;0.20;;;13.70;84.00;12.70;95025.00;;;;5050479;28;20196;-89
2023/12/13 01:51:49;;;;;;;0.20;0.20;;;13.70;83.90;12.70;95031.00;;;;5047730;28;20205;-89
2023/12/13 01:54:18;;;;;;;0.00;0.00;;;13.70;83.90;12.70;95018.00;;;;5050533;28;20229;-89
2023/12/13 01:56:46;;;;;;;0.10;0.10;;;13.70;83.80;12.70;95013.00;;;;5044653;28;20200;-90
2023/12/13 01:59:14;;;;;;;0.17;0.10;;;13.70;83.80;12.70;95007.00;;;;5049517;28;20258;-89
2023/12/13 02:01:43;;;;;;;0.30;0.10;;;13.70;83.80;12.60;94996.00;;;;5039322;28;20586;-89
2023/12/13 02:04:14;;;;;;;0.33;0.10;;;13.70;83.70;12.70;95006.00;;;;5044020;28;20227;-89
2023/12/13 02:06:43;;;;;;;0.10;0.10;;;13.70;83.70;12.70;95017.00;;;;5032887;28;20288;-89
2023/12/13 02:09:10;;;;;;;0.10;0.10;;;13.70;83.70;12.70;95018.00;;;;5045979;28;20254;-89
2023/12/13 02:11:38;;;;;;;0.70;0.20;;;13.70;83.70;12.70;95031.00;;;;5054495;28;20207;-89
2023/12/13 02:14:05;;;;;;;0.43;0.10;;;13.70;83.60;12.70;95024.00;;;;5049468;28;20202;-90
2023/12/13 02:16:34;;;;;;;0.10;0.10;;;13.70;83.70;12.70;95025.00;;;;5050411;28;20197;-89
2023/12/13 02:19:01;;;;;;;0.10;0.10;;;13.70;83.60;12.60;95025.00;;;;5046867;28;20193;-89
2023/12/13 02:21:29;;;;;;;0.33;0.10;;;13.60;83.50;12.60;95026.00;;;;5052409;28;20271;-90
2023/12/13 02:24:06;;;;;;;0.10;0.00;;;13.60;83.50;12.60;95015.00;;;;5048771;28;20231;-89
2023/12/13 02:26:40;;;;;;;0.50;0.13;;;13.60;82.90;12.60;95023.00;;;;5043884;28;20258;-90
2023/12/13 02:29:09;;;;;;;0.53;0.10;;;13.60;83.10;12.60;95033.00;;;;5045311;28;20246;-90
2023/12/13 02:31:37;;;;;;;0.10;0.10;;;13.60;82.90;12.50;95023.00;;;;5048040;28;20262;-89
2023/12/13 02:34:04;;;;;;;0.23;0.00;;;13.50;82.70;12.50;95020.00;;;;5044986;28;20254;-89
2023/12/13 02:36:31;;;;;;;0.30;0.10;;;13.50;82.60;12.50;95019.00;;;;5052120;28;20204;-90
2023/12/13 02:38:59;;;;;;;0.10;0.10;;;13.50;82.50;12.50;95017.00;;;;5046295;28;20227;-89
2023/12/13 02:41:27;;;;;;;0.20;0.10;;;13.50;82.50;12.40;95027.00;;;;5049875;28;20197;-90
2023/12/13 02:43:54;;;;;;;0.33;0.10;;;13.40;82.40;12.40;95021.00;;;;5048798;28;20221;-89
2023/12/13 02:46:22;;;;;;;0.10;0.10;;;13.50;82.40;12.30;95010.00;;;;5049682;28;20196;-89
2023/12/13 02:48:49;;;;;;;0.13;0.10;;;13.40;82.40;12.30;95021.00;;;;5044154;28;20206;-89
2023/12/13 02:51:16;;;;;;;0.20;0.10;;;13.40;82.50;12.30;95006.00;;;;5049694;28;20279;-89
2023/12/13 02:53:44;;;;;;;0.10;0.00;;;13.30;82.50;12.20;95012.00;;;;5045233;28;20201;-89
2023/12/13 02:56:11;;;;;;;0.33;0.10;;;13.30;82.60;12.20;95010.00;;;;5051327;28;20235;-89
2023/12/13 02:58:40;;;;;;;0.10;0.10;;;13.30;82.60;12.20;95012.00;;;;5050886;28;20729;-89
2023/12/13 03:01:08;;;;;;;0.20;0.17;;;13.30;82.60;12.20;95001.00;;;;5045809;28;20201;-89
2023/12/13 03:03:35;;;;;;;0.10;0.10;;;13.20;82.70;12.20;95000.00;;;;5045621;28;20193;-89
2023/12/13 03:06:03;;;;;;;0.10;0.10;;;13.30;82.80;12.20;95000.00;;;;5046478;28;20224;-89
2023/12/13 03:08:30;;;;;;;0.30;0.10;;;13.20;83.00;12.20;94995.00;;;;5048810;28;20205;-89
2023/12/13 03:10:57;;;;;;;0.20;0.10;;;13.20;83.10;12.10;94990.00;;;;5046615;28;20283;-89
2023/12/13 03:13:25;;;;;;;0.00;0.00;;;13.20;83.10;12.10;94990.00;;;;5043520;28;20208;-89
2023/12/13 03:15:54;;;;;;;0.27;0.00;;;13.20;83.00;12.10;94994.00;;;;5048887;28;20224;-90
2023/12/13 03:18:22;;;;;;;0.10;0.10;;;13.20;82.90;12.10;94993.00;;;;5047110;28;20206;-89
2023/12/13 03:20:49;;;;;;;0.10;0.10;;;13.20;82.80;12.10;94995.00;;;;5051016;28;20597;-89
2023/12/13 03:23:17;;;;;;;0.27;0.20;;;13.20;82.70;12.00;94991.00;;;;5032737;28;20208;-89
2023/12/13 03:25:44;;;;;;;0.23;0.10;;;13.10;82.80;12.00;94985.00;;;;5042646;28;20635;-90
2023/12/13 03:28:11;;;;;;;0.10;0.10;;;13.10;82.80;12.00;94992.00;;;;5034974;28;20203;-89
2023/12/13 03:30:38;;;;;;;0.10;0.10;;;13.10;82.80;12.00;95000.00;;;;5041569;28;20225;-89
2023/12/13 03:33:07;;;;;;;0.10;0.10;;;13.10;82.90;12.00;95002.00;;;;5030462;28;20288;-89
2023/12/13 03:35:34;;;;;;;0.10;0.10;;;13.10;82.90;11.90;94993.00;;;;5034354;28;20228;-89
2023/12/13 03:38:01;;;;;;;0.20;0.10;;;13.00;82.80;11.90;94991.00;;;;5044178;28;20664;-89
2023/12/13 03:40:28;;;;;;;0.10;0.10;;;13.00;82.90;11.90;94986.00;;;;5048544;28;20204;-89
2023/12/13 03:42:56;;;;;;;0.10;0.10;;;13.00;82.90;11.90;94982.00;;;;5030819;28;20193;-89
2023/12/13 03:45:24;;;;;;;0.10;0.10;;;13.00;82.80;11.90;94980.00;;;;5045645;28;20789;-90
2023/12/13 03:47:51;;;;;;;0.70;0.20;;;13.00;82.80;11.80;94982.00;;;;5043263;28;20205;-89
2023/12/13 03:50:20;;;;;;;0.07;0.07;;;13.00;82.80;11.80;94981.00;;;;5050873;28;20217;-88
2023/12/13 03:52:47;;;;;;;0.10;0.10;;;12.90;82.70;11.80;94985.00;;;;5047679;28;20900;-89
2023/12/13 03:55:15;;;;;;;0.10;0.10;;;12.90;82.80;11.80;94980.00;;;;5050227;28;20302;-89
2023/12/13 03:57:42;;;;;;;0.10;0.10;;;12.90;82.80;11.70;94985.00;;;;5046095;28;20706;-89
2023/12/13 04:00:11;;;;;;;2.33;0.20;;;12.90;82.80;11.70;94983.00;;;;5041008;28;20197;-90
2023/12/13 04:02:38;;;;;;;2.50;0.40;;;12.90;82.70;11.70;94979.00;;;;5033732;28;20292;-89
2023/12/13 04:05:08;;;;;;;0.30;0.20;;;12.80;82.70;11.70;94984.00;;;;5043139;28;20286;-89
2023/12/13 04:07:36;;;;;;;0.50;0.30;;;12.80;82.70;11.70;94975.00;;;;5038968;28;20236;-89
2023/12/13 04:10:04;;;;;;;0.83;0.23;;;12.80;82.70;11.70;94968.00;;;;5041367;28;20567;-89
2023/12/13 04:12:35;;;;;;;0.83;0.20;;;12.80;82.80;11.70;94972.00;;;;5040525;28;20630;-89
2023/12/13 04:15:02;;;;;;;0.67;0.10;;;12.80;82.90;11.70;94970.00;;;;5037107;28;20229;-89
2023/12/13 04:17:29;;;;;;;0.10;0.10;;;12.80;83.10;11.70;94972.00;;;;5040980;28;20201;-89
2023/12/13 04:19:58;;;;;;;0.20;0.20;;;12.80;83.20;11.70;94970.00;;;;5036089;28;20641;-89
2023/12/13 04:22:25;;;;;;;4.10;0.60;;;12.80;83.30;11.70;94977.00;;;;5038932;28;20254;-89
2023/12/13 04:24:54;;;;;;;0.20;0.20;;;12.80;83.20;11.70;94969.00;;;;5038192;28;20240;-88
2023/12/13 04:27:22;;;;;;;0.20;0.20;;;12.80;82.90;11.70;94973.00;;;;5040984;28;20260;-89
2023/12/13 04:29:49;;;;;;;1.40;0.20;;;12.80;82.70;11.70;94969.00;;;;5042334;28;20197;-89
2023/12/13 04:32:16;;;;;;;0.17;0.17;;;12.70;82.40;11.60;94977.00;;;;5040531;28;20202;-89
2023/12/13 04:34:44;;;;;;;0.30;0.20;;;12.70;82.30;11.60;94966.00;;;;5033813;28;20216;-90
2023/12/13 04:37:11;;;;;;;0.60;0.20;;;12.70;82.20;11.60;94964.00;;;;5048746;28;20206;-89
2023/12/13 04:39:39;;;;;;;1.33;0.40;;;12.70;82.10;11.50;94963.00;;;;5043892;28;20205;-89
2023/12/13 04:42:08;;;;;;;0.37;0.30;;;12.60;81.90;11.50;94951.00;;;;5047824;28;20194;-89
2023/12/13 04:44:35;;;;;;;0.40;0.30;;;12.60;81.80;11.40;94951.00;;;;5046620;28;20313;-89
2023/12/13 04:47:02;;;;;;;0.40;0.40;;;12.60;81.80;11.40;94946.00;;;;5047299;28;20209;-89
2023/12/13 04:49:30;;;;;;;0.30;0.30;;;12.50;81.50;11.30;94947.00;;;;5045581;28;20197;-89
2023/12/13 04:51:58;;;;;;;1.13;0.57;;;12.50;81.20;11.30;94947.00;;;;5043251;28;20222;-89
2023/12/13 04:54:25;;;;;;;0.40;0.40;;;12.40;80.90;11.20;94940.00;;;;5051791;28;20235;-89
2023/12/13 04:56:52;;;;;;;1.70;0.60;;;12.30;80.80;11.10;94954.00;;;;5045739;28;20195;-89
2023/12/13 04:59:21;;;;;;;1.73;1.00;;;12.30;80.80;11.10;94941.00;;;;5041557;28;20200;-89
2023/12/13 05:01:49;;;;;;;1.13;1.00;;;12.20;80.70;11.00;94950.00;;;;5040034;28;20197;-89
2023/12/13 05:04:17;;;;;;;0.90;0.63;;;12.20;80.90;10.90;94947.00;;;;5047468;28;20227;-89
2023/12/13 05:06:44;;;;;;;0.83;0.60;;;12.10;80.90;10.90;94949.00;;;;5044019;28;20211;-89
2023/12/13 05:09:11;;;;;;;0.60;0.50;;;12.00;80.80;10.80;94953.00;;;;5046780;28;20236;-89
2023/12/13 05:11:38;;;;;;;1.33;0.60;;;12.00;80.80;10.70;94946.00;;;;5047822;28;20223;-89
2023/12/13 05:14:05;;;;;;;0.80;0.73;;;12.00;80.80;10.70;94945.00;;;;5048576;28;20189;-89
2023/12/13 05:16:34;;;;;;;1.80;1.20;;;11.90;81.00;10.60;94941.00;;;;5047464;28;20296;-89
2023/12/13 05:19:01;;;;;;;1.27;0.80;;;11.80;81.00;10.60;94935.00;;;;5056187;28;20216;-88
2023/12/13 05:21:28;;;;;;;0.70;0.70;;;11.80;81.20;10.50;94939.00;;;;5038586;28;20255;-89
2023/12/13 05:23:55;;;;;;;0.50;0.50;;;11.70;81.20;10.50;94932.00;;;;5047151;28;20573;-89
2023/12/13 05:26:22;;;;;;;0.87;0.60;;;11.70;81.20;10.50;94937.00;;;;5046012;28;20303;-89
2023/12/13 05:28:49;;;;;;;0.50;0.50;;;11.60;81.10;10.40;94932.00;;;;5046590;28;20280;-88
2023/12/13 05:31:20;;;;;;;0.40;0.40;;;11.60;81.40;10.40;94935.00;;;;5046612;28;20288;-88
2023/12/13 05:33:49;;;;;;;0.60;0.50;;;11.60;81.60;10.40;94931.00;;;;5046945;28;20216;-89
2023/12/13 05:36:16;;;;;;;0.57;0.37;;;11.60;81.80;10.40;94929.00;;;;5049050;28;20798;-89
2023/12/13 05:38:44;;;;;;;0.30;0.30;;;11.50;82.10;10.40;94929.00;;;;5049986;28;20630;-89
2023/12/13 05:41:11;;;;;;;0.40;0.40;;;11.50;82.50;10.40;94922.00;;;;5043456;28;20203;-89
2023/12/13 05:43:38;;;;;;;0.60;0.40;;;11.50;82.60;10.40;94925.00;;;;5035888;28;20239;-89
2023/12/13 05:46:07;;;;;;;1.07;0.40;;;11.50;82.70;10.40;94923.00;;;;5047815;28;20288;-88
2023/12/13 05:48:34;;;;;;;0.87;0.50;;;11.60;82.90;10.40;94919.00;;;;5051658;28;20287;-88
2023/12/13 05:51:03;;;;;;;0.63;0.40;;;11.60;82.90;10.40;94920.00;;;;5049082;28;20383;-88
2023/12/13 05:53:31;;;;;;;0.57;0.50;;;11.60;82.90;10.50;94916.00;;;;5051631;28;20727;-89
2023/12/13 05:55:59;;;;;;;0.50;0.30;;;11.60;82.90;10.50;94924.00;;;;5050251;28;20221;-89
2023/12/13 05:58:27;;;;;;;0.43;0.30;;;11.60;82.90;10.50;94922.00;;;;5043719;28;20276;-89
2023/12/13 06:00:54;;;;;;;1.97;0.47;;;11.60;82.90;10.50;94920.00;;;;5045840;28;20665;-88
2023/12/13 06:03:21;;;;;;;0.93;0.40;;;11.60;82.90;10.50;94915.00;;;;5053020;28;20283;-88
2023/12/13 06:05:48;;;;;;;0.60;0.30;;;11.60;82.90;10.50;94909.00;;;;5047971;28;20255;-89
2023/12/13 06:08:16;;;;;;;0.60;0.50;;;11.60;82.90;10.50;94909.00;;;;5043478;28;20228;-88
2023/12/13 06:10:44;;;;;;;0.47;0.30;;;11.60;83.00;10.50;94903.00;;;;5042532;28;20217;-88
2023/12/13 06:13:11;;;;;;;1.30;0.33;;;11.60;83.00;10.50;94911.00;;;;5041811;28;20221;-89
2023/12/13 06:15:38;;;;;;;0.40;0.40;;;11.60;82.90;10.50;94888.00;;;;5051471;28;20315;-89
2023/12/13 06:18:05;;;;;;;0.30;0.30;;;11.60;82.70;10.50;94889.00;;;;5028174;28;20247;-88
2023/12/13 06:20:32;;;;;;;1.00;0.30;;;11.60;82.70;10.50;94891.00;;;;5053041;28;20691;-89
2023/12/13 06:23:00;;;;;;;2.13;0.50;;;11.60;82.60;10.50;94896.00;;;;5045234;28;20307;-88
2023/12/13 06:25:28;;;;;;;1.00;0.90;;;11.60;82.50;10.50;94912.00;;;;5042247;28;20271;-88
2023/12/13 06:27:55;;;;;;;0.90;0.90;;;11.60;82.30;10.50;94901.00;;;;5037860;28;20224;-90
2023/12/13 06:30:22;;;;;;;0.83;0.83;;;11.60;82.10;10.40;94908.00;;;;5043350;28;20220;-89
2023/12/13 06:32:50;;;;;;;0.67;0.67;;;11.60;82.10;10.40;94905.00;;;;5048282;28;20216;-88
2023/12/13 06:35:20;;;;;;;1.33;0.70;;;11.60;82.00;10.40;94902.00;;;;5040544;28;20235;-89
2023/12/13 06:37:47;;;;;;;0.47;0.43;;;11.60;81.90;10.30;94920.00;;;;5035135;28;20220;-89
2023/12/13 06:40:18;;;;;;;1.60;0.70;;;11.50;81.80;10.30;94915.00;;;;5045054;28;20193;-84
2023/12/13 06:42:47;;;;;;;1.23;0.70;;;11.50;81.90;10.30;94913.00;;;;5049047;28;20204;-84
2023/12/13 06:45:14;;;;;;;1.20;0.70;;;11.50;81.90;10.20;94921.00;;;;5048746;28;20220;-84
2023/12/13 06:47:42;;;;;;;1.00;0.90;;;11.50;82.00;10.20;94907.00;;;;5048370;28;20240;-84
2023/12/13 06:50:10;;;;;;;1.17;0.90;;;11.50;82.20;10.20;94906.00;;;;5042304;28;20198;-83
2023/12/13 06:52:38;;;;;;;1.00;1.00;;;11.50;82.20;10.30;94911.00;;;;5035972;28;20201;-83
2023/12/13 06:55:06;;;;;;;1.53;1.40;;;11.50;82.30;10.30;94912.00;;;;5034019;28;20218;-84
2023/12/13 06:57:33;;;;;;;2.17;2.07;;;11.50;82.30;10.30;94905.00;;;;5045719;28;20205;-84
2023/12/13 07:00:08;;;;;;;2.07;1.97;;;11.50;82.30;10.30;94905.00;;;;5043972;28;20266;-83
2023/12/13 07:02:36;;;;;;;1.67;1.37;;;11.60;82.40;10.30;94905.00;;;;5036863;28;20197;-84
2023/12/13 07:05:04;;;;;;;4.17;2.00;;;11.60;82.60;10.30;94904.00;;;;5048970;28;20216;-83
2023/12/13 07:07:32;;;;;;;1.60;1.50;;;11.60;82.50;10.30;94911.00;;;;5045192;28;20201;-84
2023/12/13 07:09:59;;;;;;;2.90;1.60;;;11.60;82.40;10.30;94912.00;;;;5041467;28;20192;-84
2023/12/13 07:12:28;;;;;;;1.63;1.53;;;11.60;82.30;10.40;94907.00;;;;5041098;28;20201;-83
2023/12/13 07:14:57;;;;;;;2.80;1.73;;;11.70;82.40;10.40;94892.00;;;;5037710;28;20241;-84
2023/12/13 07:17:26;;;;;;;1.70;1.20;;;11.70;82.30;10.40;94886.00;;;;5036677;28;20576;-84
2023/12/13 07:19:53;;;;;;;4.30;1.67;;;11.70;82.10;10.40;94882.00;;;;5038468;28;20220;-84
2023/12/13 07:22:20;;;;;;;4.00;1.87;;;11.70;82.10;10.40;94879.00;;;;5040634;28;20201;-84
2023/12/13 07:24:48;;;;;;;2.83;1.80;;;11.70;81.90;10.40;94880.00;;;;5040817;28;20688;-84
2023/12/13 07:27:15;;;;;;;2.13;1.87;;;11.70;81.70;10.40;94878.00;;;;5040699;28;20756;-83
2023/12/13 07:29:43;;;;;;;3.13;1.80;;;11.70;81.60;10.30;94871.00;;;;5043127;28;20193;-83
2023/12/13 07:32:10;;;;;;;3.17;1.50;;;11.70;81.50;10.30;94883.00;;;;5043442;28;20254;-83
2023/12/13 07:34:41;;;;;;;11.43;1.60;;;11.60;81.30;10.30;94875.00;;;;5036725;28;20221;-84
2023/12/13 07:37:08;;;;;;;2.80;1.40;;;11.60;81.10;10.20;94874.00;;;;5035212;28;20232;-83
2023/12/13 07:39:41;;;;;;;4.87;1.70;;;11.60;81.10;10.20;94869.00;;;;5046080;28;20189;-84
2023/12/13 07:42:09;;;;;;;2.47;1.77;;;11.50;80.90;10.20;94880.00;;;;5041032;28;20200;-84
2023/12/13 07:44:37;;;;;;;2.90;1.70;;;11.50;80.90;10.20;94865.00;;;;5036952;28;20312;-83
2023/12/13 07:47:04;;;;;;;2.87;1.57;;;11.50;81.00;10.10;94862.00;;;;5041672;28;20604;-84
2023/12/13 07:49:32;;;;;;;1.30;1.13;;;11.50;81.20;10.10;94867.00;;;;5047895;28;20282;-84
2023/12/13 07:52:00;;;;;;;2.07;1.47;;;11.50;81.30;10.10;94865.00;;;;5037341;28;20209;-84
2023/12/13 07:54:29;;;;;;;2.07;1.77;;;11.40;81.10;10.10;94862.00;;;;5045218;28;20204;-84
2023/12/13 07:56:56;;;;;;;1.93;1.53;;;11.40;80.90;10.00;94861.00;;;;5046245;28;20626;-84
2023/12/13 07:59:23;;;;;;;1.93;1.47;;;11.40;80.80;10.00;94853.00;;;;5042868;28;20322;-84
2023/12/13 08:01:51;;;;;;;3.97;1.53;;;11.40;80.80;9.90;94859.00;;;;5038618;28;20243;-84
2023/12/13 08:04:20;;;;;;;1.90;1.53;;;11.30;80.60;9.90;94861.00;;;;5043076;28;20274;-84
2023/12/13 08:06:47;;;;;;;2.57;1.60;;;11.30;80.70;9.90;94863.00;;;;5035593;28;20221;-84
2023/12/13 08:09:18;;;;;;;2.50;1.57;;;11.20;80.70;9.80;94873.00;;;;5045162;28;20250;-84
2023/12/13 08:11:46;;;;;;;2.47;1.40;;;11.20;80.80;9.80;94861.00;;;;5038790;28;20254;-84
2023/12/13 08:14:14;;;;;;;3.70;1.83;;;11.20;81.10;9.80;94859.00;;;;5041420;28;20248;-83
2023/12/13 08:16:42;;;;;;;2.43;2.00;;;11.20;81.40;9.80;94859.00;;;;5035316;28;20224;-84
2023/12/13 08:19:10;;;;;;;1.73;1.60;;;11.20;81.40;9.80;94862.00;;;;5039188;28;20211;-84
2023/12/13 08:21:40;;;;;;;5.17;2.67;;;11.20;81.40;9.80;94855.00;;;;5037807;28;20235;-84
2023/12/13 08:24:09;;;;;;;7.63;4.90;;;11.20;81.50;9.80;94865.00;;;;5035254;28;20684;-84
2023/12/13 08:26:37;;;;;;;5.70;4.17;;;11.20;81.50;9.80;94875.00;;;;5038858;28;20221;-83
2023/12/13 08:29:05;;;;;;;5.83;4.17;;;11.20;81.70;9.90;94874.00;;;;5040846;28;20200;-84
2023/12/13 08:31:32;;;;;;;5.53;3.50;;;11.20;82.00;9.90;94868.00;;;;5040710;28;20251;-84
2023/12/13 08:34:00;;;;;;;6.43;2.90;;;11.20;82.40;10.00;94872.00;;;;5043464;28;20264;-83
2023/12/13 08:36:27;;;;;;;7.07;3.43;;;11.30;82.80;10.00;94870.00;;;;5040604;28;20228;-84
2023/12/13 08:38:55;;;;;;;5.17;3.00;;;11.30;83.00;10.10;94877.00;;;;5042244;28;20197;-84
2023/12/13 08:41:22;;;;;;;3.23;2.57;;;11.40;83.30;10.20;94873.00;;;;5047193;28;20585;-84
2023/12/13 08:43:51;;;;;;;3.10;2.30;;;11.40;83.50;10.30;94868.00;;;;5033287;28;20201;-84
2023/12/13 08:46:18;;;;;;;3.37;2.50;;;11.50;83.90;10.40;94867.00;;;;5039829;28;20217;-84
2023/12/13 08:48:46;;;;;;;3.17;2.60;;;11.60;84.20;10.50;94872.00;;;;5039737;28;20196;-84
2023/12/13 08:51:13;;;;;;;3.67;2.20;;;11.70;84.30;10.60;94881.00;;;;5041711;28;20714;-84
2023/12/13 08:53:41;;;;;;;3.53;2.10;;;11.80;84.50;10.70;94874.00;;;;5047098;28;20205;-83
2023/12/13 08:56:10;;;;;;;3.07;2.10;;;11.80;84.20;10.80;94878.00;;;;5032396;28;20217;-84
2023/12/13 08:58:37;;;;;;;2.57;2.37;;;11.90;84.30;10.80;94868.00;;;;5039252;28;20291;-83
2023/12/13 09:01:07;;;;;;;1.97;1.73;;;12.00;84.30;10.90;94862.00;;;;5041814;28;20197;-84
2023/12/13 09:03:34;;;;;;;2.10;1.90;;;12.10;84.20;11.00;94855.00;;;;5042685;28;20556;-84
2023/12/13 09:06:02;;;;;;;4.70;2.13;;;12.10;84.20;11.10;94859.00;;;;5043891;28;20237;-84
2023/12/13 09:08:29;;;;;;;3.93;2.20;;;12.20;84.30;11.20;94854.00;;;;5043001;28;20225;-84
2023/12/13 09:10:56;;;;;;;4.33;2.53;;;12.30;84.20;11.20;94850.00;;;;5040486;28;21351;-84
2023/12/13 09:13:24;;;;;;;6.40;2.50;;;12.30;84.10;11.30;94854.00;;;;5043621;28;20200;-84
2023/12/13 09:15:51;;;;;;;3.67;2.10;;;12.40;84.20;11.40;94857.00;;;;5045965;28;20696;-84
2023/12/13 09:18:20;;;;;;;3.63;2.07;;;12.50;84.40;11.40;94850.00;;;;5050247;28;20203;-85
2023/12/13 09:20:48;;;;;;;2.50;1.80;;;12.60;84.40;11.60;94853.00;;;;5042776;28;20205;-84
2023/12/13 09:23:23;;;;;;;2.40;2.00;;;12.70;84.30;11.60;94850.00;;;;5041854;28;20222;-84
2023/12/13 09:25:51;;;;;;;3.83;2.00;;;12.70;83.80;11.70;94854.00;;;;5041240;28;20688;-84
2023/12/13 09:28:19;;;;;;;1.90;1.70;;;12.80;84.20;11.80;94846.00;;;;5039523;28;20198;-84
2023/12/13 09:30:47;;;;;;;1.50;1.20;;;12.90;84.30;11.90;94844.00;;;;5044127;28;20209;-83
2023/12/13 09:33:16;;;;;;;2.10;1.30;;;13.00;84.20;12.00;94849.00;;;;5041350;28;20620;-84
2023/12/13 09:35:45;;;;;;;2.57;1.40;;;13.00;84.30;12.00;94844.00;;;;5031048;28;20262;-84
2023/12/13 09:38:12;;;;;;;1.63;1.53;;;13.10;84.40;12.20;94854.00;;;;5041231;28;20232;-84
2023/12/13 09:40:40;;;;;;;3.13;1.50;;;13.20;84.50;12.20;94859.00;;;;5041443;28;20209;-84
2023/12/13 09:43:08;;;;;;;1.40;1.30;;;13.30;84.40;12.30;94852.00;;;;5041975;28;20706;-84
2023/12/13 09:45:40;;;;;;;1.70;1.60;;;13.40;84.40;12.40;94853.00;;;;5044283;28;20220;-84
2023/12/13 09:48:10;;;;;;;1.77;1.67;;;13.50;84.30;12.50;94848.00;;;;5046146;28;20641;-85
2023/12/13 09:50:39;;;;;;;1.60;1.47;;;13.50;84.10;12.50;94854.00;;;;5042404;28;20687;-84
2023/12/13 09:53:10;;;;;;;2.00;1.70;;;13.60;84.10;12.60;94852.00;;;;5038976;28;20549;-85
2023/12/13 09:55:38;;;;;;;2.37;1.70;;;13.70;84.10;12.70;94852.00;;;;5040835;28;20220;-84
2023/12/13 09:58:05;;;;;;;1.80;1.70;;;13.80;84.90;12.90;94848.00;;;;5046390;28;20278;-84
2023/12/13 10:00:33;;;;;;;2.47;1.57;;;13.90;85.70;13.10;94854.00;;;;5041806;28;20200;-84
2023/12/13 10:03:00;;;;;;;2.30;1.60;;;14.10;86.40;13.30;94847.00;;;;5038530;28;21165;-84
2023/12/13 10:05:33;;;;;;;1.80;1.50;;;14.20;86.40;13.40;94855.00;;;;5042635;28;20209;-84
2023/12/13 10:08:03;;;;;;;1.37;1.23;;;14.40;85.80;13.50;94856.00;;;;5046097;28;20220;-84
2023/12/13 10:10:34;;;;;;;1.53;1.30;;;14.50;85.00;13.60;94855.00;;;;5043260;28;20672;-84
2023/12/13 10:13:02;;;;;;;1.40;1.30;;;14.60;84.30;13.70;94862.00;;;;5047113;28;20235;-84
2023/12/13 10:15:31;;;;;;;2.67;1.70;;;14.70;83.90;13.70;94856.00;;;;5044961;28;20221;-84
2023/12/13 10:17:59;;;;;;;1.73;1.63;;;14.80;83.40;13.80;94858.00;;;;5040540;28;20289;-84
2023/12/13 10:20:27;;;;;;;3.13;1.50;;;14.90;83.10;13.80;94862.00;;;;5047302;28;20196;-84
2023/12/13 10:22:54;;;;;;;1.73;1.63;;;14.90;82.70;13.90;94863.00;;;;5036417;28;20193;-84
2023/12/13 10:25:22;;;;;;;2.00;1.30;;;14.90;82.40;13.90;94862.00;;;;5043733;28;20233;-84
2023/12/13 10:27:53;;;;;;;1.30;1.10;;;15.00;82.30;13.90;94853.00;;;;5038711;28;20680;-84
2023/12/13 10:30:20;;;;;;;1.03;0.90;;;15.00;82.00;13.90;94863.00;;;;5039794;28;20197;-84
2023/12/13 10:32:48;;;;;;;1.40;1.30;;;15.00;82.00;13.90;94848.00;;;;5042625;28;20627;-84
2023/12/13 10:35:15;;;;;;;1.60;1.20;;;15.00;81.80;13.90;94847.00;;;;5047133;28;20244;-84
2023/12/13 10:37:43;;;;;;;1.13;1.00;;;15.00;81.50;13.90;94843.00;;;;5046954;28;20334;-84
2023/12/13 10:40:14;;;;;;;0.90;0.90;;;15.00;81.10;13.90;94843.00;;;;5044746;28;20620;-84
2023/12/13 10:42:46;;;;;;;1.10;0.80;;;15.00;80.80;13.80;94835.00;;;;5039635;28;20671;-84
2023/12/13 10:45:17;;;;;;;1.27;0.97;;;15.00;81.00;13.80;94834.00;;;;5049852;28;20311;-84
2023/12/13 10:47:46;;;;;;;0.90;0.90;;;15.00;81.20;13.80;94828.00;;;;5042488;28;20644;-84
2023/12/13 10:50:15;;;;;;;1.90;1.13;;;15.00;81.30;13.80;94830.00;;;;5038354;28;20292;-84
2023/12/13 10:52:45;;;;;;;1.10;1.00;;;14.90;81.10;13.80;94829.00;;;;5042755;28;20289;-84
2023/12/13 10:55:15;;;;;;;1.40;1.30;;;14.90;81.00;13.80;94828.00;;;;5033237;28;20627;-84
2023/12/13 10:57:42;;;;;;;2.60;1.33;;;14.90;80.90;13.70;94823.00;;;;5048072;28;20201;-84